Flight Track Log - Related Links

Times and Time Zones

All times are in EDT time to prevent confusion due to time zone crossing. See the FIN51 flight status page for this flight to view local times or setup timezone preferences in your user account.

Time Position Orientation Groundspeed Altitude Reporting Facility
EDT Latitude Longitude Course Direction KTS MPH feet Rate Location/Type
Sun 12:14:00 PM 60.5317 25.9681 66° East  Level Estimated
Sun 12:15:00 PM 60.5841 26.2214 67° East  Level Estimated
Sun 12:16:00 PM 60.6360 26.4755 67° East  Level Estimated
Sun 12:17:00 PM 60.6875 26.7304 67° East  Level Estimated
Sun 12:18:00 PM 60.7384 26.9861 68° East  Level Estimated
Sun 12:19:00 PM 60.7888 27.2420 68° East  Level Estimated
Sun 12:20:00 PM 60.8387 27.4987 68° East  Level Estimated
Sun 12:21:00 PM 60.8881 27.7562 68° East  Level Estimated
Sun 12:22:00 PM 60.9370 28.0145 69° East  Level Estimated
Sun 12:23:00 PM 60.9854 28.2736 69° East  Level Estimated
Sun 12:24:00 PM 61.0333 28.5335 69° East  Level Estimated
Sun 12:25:00 PM 61.0807 28.7941 69° East  Level Estimated
Sun 12:26:00 PM 61.1275 29.0556 70° East  Level Estimated
Sun 12:27:00 PM 61.1739 29.3178 70° East  Level Estimated
Sun 12:28:00 PM 61.2198 29.5808 70° East  Level Estimated
Sun 12:29:00 PM 61.2652 29.8445 70° East  Level Estimated
Sun 12:30:00 PM 61.3100 30.1090 70° East  Level Estimated
Sun 12:31:00 PM 61.3544 30.3743 71° East  Level Estimated
Sun 12:32:00 PM 61.3982 30.6403 71° East  Level Estimated
Sun 12:33:00 PM 61.4415 30.9070 71° East  Level Estimated
Sun 12:34:00 PM 61.4843 31.1745 71° East  Level Estimated
Sun 12:35:00 PM 61.5265 31.4428 72° East  Level Estimated
Sun 12:36:00 PM 61.5682 31.7117 72° East  Level Estimated
Sun 12:37:00 PM 61.6094 31.9814 72° East  Level Estimated
Sun 12:38:00 PM 61.6501 32.2517 72° East  Level Estimated
Sun 12:39:00 PM 61.6902 32.5228 73° East  Level Estimated
Sun 12:40:00 PM 61.7298 32.7946 73° East  Level Estimated
Sun 12:41:00 PM 61.7689 33.0671 73° East  Level Estimated
Sun 12:42:00 PM 61.8074 33.3402 73° East  Level Estimated
Sun 12:43:00 PM 61.8453 33.6141 74° East  Level Estimated
Sun 12:44:00 PM 61.8828 33.8886 74° East  Level Estimated
Sun 12:45:00 PM 61.9196 34.1638 74° East  Level Estimated
Sun 12:46:00 PM 61.9560 34.4397 74° East  Level Estimated
Sun 12:47:00 PM 61.9917 34.7162 74° East  Level Estimated
Sun 12:48:00 PM 62.0269 34.9933 75° East  Level Estimated
Sun 12:49:00 PM 62.0616 35.2711 75° East  Level Estimated
Sun 12:50:00 PM 62.0957 35.5495 75° East  Level Estimated
Sun 12:51:00 PM 62.1292 35.8285 75° East  Level Estimated
Sun 12:52:00 PM 62.1622 36.1082 76° East  Level Estimated
Sun 12:53:00 PM 62.1946 36.3885 76° East  Level Estimated
Sun 12:54:00 PM 62.2265 36.6693 76° East  Level Estimated
Sun 12:55:00 PM 62.2577 36.9507 76° East  Level Estimated
Sun 12:56:00 PM 62.2884 37.2327 77° East  Level Estimated
Sun 12:57:00 PM 62.3186 37.5153 77° East  Level Estimated
Sun 12:58:00 PM 62.3481 37.7985 77° East  Level Estimated
Sun 12:59:00 PM 62.3771 38.0822 77° East  Level Estimated
Sun 01:00:00 PM 62.4055 38.3664 78° East  Level Estimated
Sun 01:01:00 PM 62.4333 38.6512 78° East  Level Estimated
Sun 01:02:00 PM 62.4606 38.9365 78° East  Level Estimated
Sun 01:03:00 PM 62.4872 39.2223 78° East  Level Estimated
Sun 01:04:00 PM 62.5133 39.5087 79° East  Level Estimated
Sun 01:05:00 PM 62.5388 39.7955 79° East  Level Estimated
Sun 01:06:00 PM 62.5637 40.0828 79° East  Level Estimated
Sun 01:07:00 PM 62.5880 40.3706 79° East  Level Estimated
Sun 01:08:00 PM 62.6117 40.6588 80° East  Level Estimated
Sun 01:09:00 PM 62.6348 40.9475 80° East  Level Estimated
Sun 01:10:00 PM 62.6574 41.2367 80° East  Level Estimated
Sun 01:11:00 PM 62.6793 41.5262 81° East  Level Estimated
Sun 01:12:00 PM 62.7006 41.8163 81° East  Level Estimated
Sun 01:13:00 PM 62.7214 42.1067 81° East  Level Estimated
Sun 01:14:00 PM 62.7415 42.3975 81° East  Level Estimated
Sun 01:15:00 PM 62.7610 42.6887 82° East  Level Estimated
Sun 01:16:00 PM 62.7800 42.9803 82° East  Level Estimated
Sun 01:17:00 PM 62.7983 43.2723 82° East  Level Estimated
Sun 01:18:00 PM 62.8160 43.5646 82° East  Level Estimated
Sun 01:19:00 PM 62.8331 43.8572 83° East  Level Estimated
Sun 01:20:00 PM 62.8496 44.1502 83° East  Level Estimated
Sun 01:21:00 PM 62.8655 44.4436 83° East  Level Estimated
Sun 01:22:00 PM 62.8808 44.7372 83° East  Level Estimated
Sun 01:23:00 PM 62.8955 45.0311 84° East  Level Estimated
Sun 01:24:00 PM 62.9095 45.3254 84° East  Level Estimated
Sun 01:25:00 PM 62.9230 45.6199 84° East  Level Estimated
Sun 01:26:00 PM 62.9358 45.9146 84° East  Level Estimated
Sun 01:27:00 PM 62.9480 46.2096 85° East  Level Estimated
Sun 01:28:00 PM 62.9596 46.5049 85° East  Level Estimated
Sun 01:29:00 PM 62.9706 46.8004 85° East  Level Estimated
Sun 01:30:00 PM 62.9810 47.0961 85° East  Level Estimated
Sun 01:31:00 PM 62.9907 47.3920 86° East  Level Estimated
Sun 01:32:00 PM 62.9999 47.6881 86° East  Level Estimated
Sun 01:33:00 PM 63.0084 47.9843 86° East  Level Estimated
Sun 01:34:00 PM 63.0163 48.2808 87° East  Level Estimated
Sun 01:35:00 PM 63.0236 48.5774 87° East  Level Estimated
Sun 01:36:00 PM 63.0302 48.8741 87° East  Level Estimated
Sun 01:37:00 PM 63.0363 49.1710 87° East  Level Estimated
Sun 01:38:00 PM 63.0417 49.4679 88° East  Level Estimated
Sun 01:39:00 PM 63.0465 49.7650 88° East  Level Estimated
Sun 01:40:00 PM 63.0506 50.0622 88° East  Level Estimated
Sun 01:41:00 PM 63.0541 50.3595 88° East  Level Estimated
Sun 01:42:00 PM 63.0571 50.6568 89° East  Level Estimated
Sun 01:43:00 PM 63.0594 50.9542 89° East  Level Estimated
Sun 01:44:00 PM 63.0610 51.2516 89° East  Level Estimated
Sun 01:45:00 PM 63.0621 51.5490 89° East  Level Estimated
Sun 01:46:00 PM 63.0625 51.8465 90° East  Level Estimated
Sun 01:47:00 PM 63.0623 52.1439 90° East  Level Estimated
Sun 01:48:00 PM 63.0615 52.4414 90° East  Level Estimated
Sun 01:49:00 PM 63.0600 52.7388 90° East  Level Estimated
Sun 01:50:00 PM 63.0580 53.0362 91° East  Level Estimated
Sun 01:51:00 PM 63.0553 53.3335 91° East  Level Estimated
Sun 01:52:00 PM 63.0520 53.6308 91° East  Level Estimated
Sun 01:53:00 PM 63.0480 53.9280 92° East  Level Estimated
Sun 01:54:00 PM 63.0434 54.2251 92° East  Level Estimated
Sun 01:55:00 PM 63.0383 54.5222 92° East  Level Estimated
Sun 01:56:00 PM 63.0325 54.8191 92° East  Level Estimated
Sun 01:57:00 PM 63.0260 55.1158 93° East  Level Estimated
Sun 01:58:00 PM 63.0190 55.4125 93° East  Level Estimated
Sun 01:59:00 PM 63.0113 55.7090 93° East  Level Estimated
Sun 02:00:00 PM 63.0030 56.0053 93° East  Level Estimated
Sun 02:01:00 PM 62.9941 56.3015 94° East  Level Estimated
Sun 02:02:00 PM 62.9846 56.5975 94° East  Level Estimated
Sun 02:03:00 PM 62.9744 56.8932 94° East  Level Estimated
Sun 02:04:00 PM 62.9637 57.1888 94° East  Level Estimated
Sun 02:05:00 PM 62.9523 57.4841 95° East  Level Estimated
Sun 02:06:00 PM 62.9403 57.7792 95° East  Level Estimated
Sun 02:07:00 PM 62.9277 58.0741 95° East  Level Estimated
Sun 02:08:00 PM 62.9145 58.3687 96° East  Level Estimated
Sun 02:09:00 PM 62.9006 58.6630 96° East  Level Estimated
Sun 02:10:00 PM 62.8862 58.9571 96° East  Level Estimated
Sun 02:11:00 PM 62.8711 59.2508 96° East  Level Estimated
Sun 02:12:00 PM 62.8554 59.5442 97° East  Level Estimated
Sun 02:13:00 PM 62.8391 59.8373 97° East  Level Estimated
Sun 02:14:00 PM 62.8222 60.1301 97° East  Level Estimated
Sun 02:15:00 PM 62.8047 60.4226 97° East  Level Estimated
Sun 02:16:00 PM 62.7866 60.7147 98° East  Level Estimated
Sun 02:17:00 PM 62.7679 61.0064 98° East  Level Estimated
Sun 02:18:00 PM 62.7486 61.2977 98° East  Level Estimated
Sun 02:19:00 PM 62.7287 61.5887 98° East  Level Estimated
Sun 02:20:00 PM 62.7082 61.8793 99° East  Level Estimated
Sun 02:21:00 PM 62.6870 62.1694 99° East  Level Estimated
Sun 02:22:00 PM 62.6653 62.4592 99° East  Level Estimated
Sun 02:23:00 PM 62.6430 62.7485 99° East  Level Estimated
Sun 02:24:00 PM 62.6201 63.0373 100° East  Level Estimated
Sun 02:25:00 PM 62.5966 63.3257 100° East  Level Estimated
Sun 02:26:00 PM 62.5725 63.6137 100° East  Level Estimated
Sun 02:27:00 PM 62.5478 63.9012 100° East  Level Estimated
Sun 02:28:00 PM 62.5226 64.1882 101° East  Level Estimated
Sun 02:29:00 PM 62.4967 64.4747 101° East  Level Estimated
Sun 02:30:00 PM 62.4702 64.7607 101° East  Level Estimated
Sun 02:31:00 PM 62.4432 65.0462 101° East  Level Estimated
Sun 02:32:00 PM 62.4156 65.3311 102° East  Level Estimated
Sun 02:33:00 PM 62.3874 65.6156 102° East  Level Estimated
Sun 02:34:00 PM 62.3586 65.8995 102° East  Level Estimated
Sun 02:35:00 PM 62.3293 66.1828 102° East  Level Estimated
Sun 02:36:00 PM 62.2994 66.4656 103° East  Level Estimated
Sun 02:37:00 PM 62.2689 66.7478 103° East  Level Estimated
Sun 02:38:00 PM 62.2378 67.0295 103° East  Level Estimated
Sun 02:39:00 PM 62.2062 67.3105 103° East  Level Estimated
Sun 02:40:00 PM 62.1740 67.5910 104° East  Level Estimated
Sun 02:41:00 PM 62.1412 67.8709 104° East  Level Estimated
Sun 02:42:00 PM 62.1078 68.1501 104° East  Level Estimated
Sun 02:43:00 PM 62.0739 68.4288 104° East  Level Estimated
Sun 02:44:00 PM 62.0395 68.7068 105° East  Level Estimated
Sun 02:45:00 PM 62.0045 68.9842 105° East  Level Estimated
Sun 02:46:00 PM 61.9689 69.2609 105° East  Level Estimated
Sun 02:47:00 PM 61.9328 69.5370 105° East  Level Estimated
Sun 02:48:00 PM 61.8961 69.8124 106° East  Level Estimated
Sun 02:49:00 PM 61.8589 70.0872 106° East  Level Estimated
Sun 02:50:00 PM 61.8211 70.3613 106° East  Level Estimated
Sun 02:51:00 PM 61.7828 70.6347 106° East  Level Estimated
Sun 02:52:00 PM 61.7439 70.9074 107° East  Level Estimated
Sun 02:53:00 PM 61.7045 71.1795 107° East  Level Estimated
Sun 02:54:00 PM 61.6646 71.4508 107° East  Level Estimated
Sun 02:55:00 PM 61.6241 71.7214 107° East  Level Estimated
Sun 02:56:00 PM 61.5831 71.9913 108° East  Level Estimated
Sun 02:57:00 PM 61.5416 72.2605 108° East  Level Estimated
Sun 02:58:00 PM 61.4995 72.5290 108° East  Level Estimated
Sun 02:59:00 PM 61.4570 72.7968 108° East  Level Estimated
Sun 03:00:00 PM 61.4138 73.0638 109° East  Level Estimated
Sun 03:01:00 PM 61.3702 73.3301 109° East  Level Estimated
Sun 03:02:00 PM 61.3261 73.5956 109° East  Level Estimated
Sun 03:03:00 PM 61.2814 73.8604 109° East  Level Estimated
Sun 03:04:00 PM 61.2362 74.1244 109° East  Level Estimated
Sun 03:05:00 PM 61.1905 74.3876 110° East  Level Estimated
Sun 03:06:00 PM 61.1443 74.6501 110° East  Level Estimated
Sun 03:07:00 PM 61.0976 74.9118 110° East  Level Estimated
Sun 03:08:00 PM 61.0504 75.1728 110° East  Level Estimated
Sun 03:09:00 PM 61.0027 75.4330 111° Southeast  Level Estimated
Sun 03:10:00 PM 60.9544 75.6923 111° Southeast  Level Estimated
Sun 03:11:00 PM 60.9057 75.9509 111° Southeast  Level Estimated
Sun 03:12:00 PM 60.8565 76.2087 111° Southeast  Level Estimated
Sun 03:13:00 PM 60.8068 76.4657 112° Southeast  Level Estimated
Sun 03:14:00 PM 60.7566 76.7219 112° Southeast  Level Estimated
Sun 03:15:00 PM 60.7060 76.9773 112° Southeast  Level Estimated
Sun 03:16:00 PM 60.6548 77.2319 112° Southeast  Level Estimated
Sun 03:17:00 PM 60.6032 77.4857 112° Southeast  Level Estimated
Sun 03:18:00 PM 60.5510 77.7386 113° Southeast  Level Estimated
Sun 03:19:00 PM 60.4985 77.9908 113° Southeast  Level Estimated
Sun 03:20:00 PM 60.4454 78.2421 113° Southeast  Level Estimated
Sun 03:21:00 PM 60.3918 78.4926 113° Southeast  Level Estimated
Sun 03:22:00 PM 60.3378 78.7423 114° Southeast  Level Estimated
Sun 03:23:00 PM 60.2834 78.9911 114° Southeast  Level Estimated
Sun 03:24:00 PM 60.2284 79.2391 114° Southeast  Level Estimated
Sun 03:25:00 PM 60.1730 79.4863 114° Southeast  Level Estimated
Sun 03:26:00 PM 60.1171 79.7327 114° Southeast  Level Estimated
Sun 03:27:00 PM 60.0608 79.9782 115° Southeast  Level Estimated
Sun 03:28:00 PM 60.0041 80.2228 115° Southeast  Level Estimated
Sun 03:29:00 PM 59.9468 80.4667 115° Southeast  Level Estimated
Sun 03:30:00 PM 59.8892 80.7096 115° Southeast  Level Estimated
Sun 03:31:00 PM 59.8311 80.9518 115° Southeast  Level Estimated
Sun 03:32:00 PM 59.7725 81.1931 116° Southeast  Level Estimated
Sun 03:33:00 PM 59.7135 81.4335 116° Southeast  Level Estimated
Sun 03:34:00 PM 59.6541 81.6731 116° Southeast  Level Estimated
Sun 03:35:00 PM 59.5942 81.9118 116° Southeast  Level Estimated
Sun 03:36:00 PM 59.5339 82.1497 116° Southeast  Level Estimated
Sun 03:37:00 PM 59.4731 82.3868 117° Southeast  Level Estimated
Sun 03:38:00 PM 59.4120 82.6229 117° Southeast  Level Estimated
Sun 03:39:00 PM 59.3504 82.8583 117° Southeast  Level Estimated
Sun 03:40:00 PM 59.2884 83.0928 117° Southeast  Level Estimated
Sun 03:41:00 PM 59.2260 83.3264 117° Southeast  Level Estimated
Sun 03:42:00 PM 59.1631 83.5591 118° Southeast  Level Estimated
Sun 03:43:00 PM 59.0998 83.7910 118° Southeast  Level Estimated
Sun 03:44:00 PM 59.0362 84.0221 118° Southeast  Level Estimated
Sun 03:45:00 PM 58.9721 84.2523 118° Southeast  Level Estimated
Sun 03:46:00 PM 58.9076 84.4816 118° Southeast  Level Estimated
Sun 03:47:00 PM 58.8427 84.7101 119° Southeast  Level Estimated
Sun 03:48:00 PM 58.7774 84.9377 119° Southeast  Level Estimated
Sun 03:49:00 PM 58.7117 85.1645 119° Southeast  Level Estimated
Sun 03:50:00 PM 58.6456 85.3904 119° Southeast  Level Estimated
Sun 03:51:00 PM 58.5791 85.6154 119° Southeast  Level Estimated
Sun 03:52:00 PM 58.5123 85.8396 120° Southeast  Level Estimated
Sun 03:53:00 PM 58.4450 86.0630 120° Southeast  Level Estimated
Sun 03:54:00 PM 58.3773 86.2854 120° Southeast  Level Estimated
Sun 03:55:00 PM 58.3093 86.5071 120° Southeast  Level Estimated
Sun 03:56:00 PM 58.2409 86.7278 120° Southeast  Level Estimated
Sun 03:57:00 PM 58.1721 86.9478 121° Southeast  Level Estimated
Sun 03:58:00 PM 58.1029 87.1668 121° Southeast  Level Estimated
Sun 03:59:00 PM 58.0334 87.3851 121° Southeast  Level Estimated
Sun 04:00:00 PM 57.9634 87.6024 121° Southeast  Level Estimated
Sun 04:01:00 PM 57.8931 87.8189 121° Southeast  Level Estimated
Sun 04:02:00 PM 57.8225 88.0346 122° Southeast  Level Estimated
Sun 04:03:00 PM 57.7515 88.2495 122° Southeast  Level Estimated
Sun 04:04:00 PM 57.6801 88.4634 122° Southeast  Level Estimated
Sun 04:05:00 PM 57.6083 88.6766 122° Southeast  Level Estimated
Sun 04:06:00 PM 57.5362 88.8889 122° Southeast  Level Estimated
Sun 04:07:00 PM 57.4638 89.1003 122° Southeast  Level Estimated
Sun 04:08:00 PM 57.3910 89.3110 123° Southeast  Level Estimated
Sun 04:09:00 PM 57.3178 89.5208 123° Southeast  Level Estimated
Sun 04:10:00 PM 57.2443 89.7297 123° Southeast  Level Estimated
Sun 04:11:00 PM 57.1704 89.9378 123° Southeast  Level Estimated
Sun 04:12:00 PM 57.0962 90.1451 123° Southeast  Level Estimated
Sun 04:13:00 PM 57.0217 90.3516 123° Southeast  Level Estimated
Sun 04:14:00 PM 56.9468 90.5572 124° Southeast  Level Estimated
Sun 04:15:00 PM 56.8716 90.7620 124° Southeast  Level Estimated
Sun 04:16:00 PM 56.7961 90.9660 124° Southeast  Level Estimated
Sun 04:17:00 PM 56.7202 91.1691 124° Southeast  Level Estimated
Sun 04:18:00 PM 56.6440 91.3715 124° Southeast  Level Estimated
Sun 04:19:00 PM 56.5675 91.5730 125° Southeast  Level Estimated
Sun 04:20:00 PM 56.4906 91.7737 125° Southeast  Level Estimated
Sun 04:21:00 PM 56.4134 91.9735 125° Southeast  Level Estimated
Sun 04:22:00 PM 56.3359 92.1726 125° Southeast  Level Estimated
Sun 04:23:00 PM 56.2581 92.3709 125° Southeast  Level Estimated
Sun 04:24:00 PM 56.1800 92.5684 125° Southeast  Level Estimated
Sun 04:25:00 PM 56.1015 92.7650 126° Southeast  Level Estimated
Sun 04:26:00 PM 56.0228 92.9609 126° Southeast  Level Estimated
Sun 04:27:00 PM 55.9437 93.1559 126° Southeast  Level Estimated
Sun 04:28:00 PM 55.8643 93.3502 126° Southeast  Level Estimated
Sun 04:29:00 PM 55.7847 93.5437 126° Southeast  Level Estimated
Sun 04:30:00 PM 55.7047 93.7363 126° Southeast  Level Estimated
Sun 04:31:00 PM 55.6244 93.9282 126° Southeast  Level Estimated
Sun 04:32:00 PM 55.5438 94.1193 127° Southeast  Level Estimated
Sun 04:33:00 PM 55.4630 94.3096 127° Southeast  Level Estimated
Sun 04:34:00 PM 55.3818 94.4992 127° Southeast  Level Estimated
Sun 04:35:00 PM 55.3003 94.6879 127° Southeast  Level Estimated
Sun 04:36:00 PM 55.2186 94.8759 127° Southeast  Level Estimated
Sun 04:37:00 PM 55.1365 95.0631 127° Southeast  Level Estimated
Sun 04:38:00 PM 55.0542 95.2496 128° Southeast  Level Estimated
Sun 04:39:00 PM 54.9716 95.4353 128° Southeast  Level Estimated
Sun 04:40:00 PM 54.8887 95.6202 128° Southeast  Level Estimated
Sun 04:41:00 PM 54.8055 95.8043 128° Southeast  Level Estimated
Sun 04:42:00 PM 54.7221 95.9877 128° Southeast  Level Estimated
Sun 04:43:00 PM 54.6384 96.1704 128° Southeast  Level Estimated
Sun 04:44:00 PM 54.5544 96.3522 128° Southeast  Level Estimated
Sun 04:45:00 PM 54.4701 96.5334 129° Southeast  Level Estimated
Sun 04:46:00 PM 54.3856 96.7138 129° Southeast  Level Estimated
Sun 04:47:00 PM 54.3008 96.8934 129° Southeast  Level Estimated
Sun 04:48:00 PM 54.2157 97.0723 129° Southeast  Level Estimated
Sun 04:49:00 PM 54.1304 97.2505 129° Southeast  Level Estimated
Sun 04:50:00 PM 54.0448 97.4280 129° Southeast  Level Estimated
Sun 04:51:00 PM 53.9589 97.6047 130° Southeast  Level Estimated
Sun 04:52:00 PM 53.8728 97.7807 130° Southeast  Level Estimated
Sun 04:53:00 PM 53.7864 97.9559 130° Southeast  Level Estimated
Sun 04:54:00 PM 53.6998 98.1304 130° Southeast  Level Estimated
Sun 04:55:00 PM 53.6129 98.3043 130° Southeast  Level Estimated
Sun 04:56:00 PM 53.5258 98.4774 130° Southeast  Level Estimated
Sun 04:57:00 PM 53.4384 98.6498 130° Southeast  Level Estimated
Sun 04:58:00 PM 53.3508 98.8215 130° Southeast  Level Estimated
Sun 04:59:00 PM 53.2629 98.9924 131° Southeast  Level Estimated
Sun 05:00:00 PM 53.1748 99.1627 131° Southeast  Level Estimated
Sun 05:01:00 PM 53.0864 99.3323 131° Southeast  Level Estimated
Sun 05:02:00 PM 52.9979 99.5012 131° Southeast  Level Estimated
Sun 05:03:00 PM 52.9090 99.6694 131° Southeast  Level Estimated
Sun 05:04:00 PM 52.8200 99.8369 131° Southeast  Level Estimated
Sun 05:05:00 PM 52.7307 100.0037 131° Southeast  Level Estimated
Sun 05:06:00 PM 52.6411 100.1698 132° Southeast  Level Estimated
Sun 05:07:00 PM 52.5513 100.3353 132° Southeast  Level Estimated
Sun 05:08:00 PM 52.4613 100.5000 132° Southeast  Level Estimated
Sun 05:09:00 PM 52.3711 100.6641 132° Southeast  Level Estimated
Sun 05:10:00 PM 52.2807 100.8276 132° Southeast  Level Estimated
Sun 05:11:00 PM 52.1900 100.9903 132° Southeast  Level Estimated
Sun 05:12:00 PM 52.0991 101.1524 132° Southeast  Level Estimated
Sun 05:13:00 PM 52.0079 101.3139 132° Southeast  Level Estimated
Sun 05:14:00 PM 51.9166 101.4747 133° Southeast  Level Estimated
Sun 05:15:00 PM 51.8251 101.6348 133° Southeast  Level Estimated
Sun 05:16:00 PM 51.7333 101.7943 133° Southeast  Level Estimated
Sun 05:17:00 PM 51.6413 101.9531 133° Southeast  Level Estimated
Sun 05:18:00 PM 51.5491 102.1113 133° Southeast  Level Estimated
Sun 05:19:00 PM 51.4566 102.2689 133° Southeast  Level Estimated
Sun 05:20:00 PM 51.3640 102.4258 133° Southeast  Level Estimated
Sun 05:21:00 PM 51.2712 102.5820 133° Southeast  Level Estimated
Sun 05:22:00 PM 51.1781 102.7377 134° Southeast  Level Estimated
Sun 05:23:00 PM 51.0849 102.8927 134° Southeast  Level Estimated
Sun 05:24:00 PM 50.9914 103.0471 134° Southeast  Level Estimated
Sun 05:25:00 PM 50.8978 103.2009 134° Southeast  Level Estimated
Sun 05:26:00 PM 50.8039 103.3540 134° Southeast  Level Estimated
Sun 05:27:00 PM 50.7099 103.5066 134° Southeast  Level Estimated
Sun 05:28:00 PM 50.6156 103.6585 134° Southeast  Level Estimated
Sun 05:29:00 PM 50.5212 103.8098 134° Southeast  Level Estimated
Sun 05:30:00 PM 50.4265 103.9605 135° Southeast  Level Estimated
Sun 05:31:00 PM 50.3317 104.1107 135° Southeast  Level Estimated
Sun 05:32:00 PM 50.2366 104.2602 135° Southeast  Level Estimated
Sun 05:33:00 PM 50.1414 104.4091 135° Southeast  Level Estimated
Sun 05:34:00 PM 50.0460 104.5574 135° Southeast  Level Estimated
Sun 05:35:00 PM 49.9504 104.7052 135° Southeast  Level Estimated
Sun 05:36:00 PM 49.8546 104.8523 135° Southeast  Level Estimated
Sun 05:37:00 PM 49.7586 104.9989 135° Southeast  Level Estimated
Sun 05:38:00 PM 49.6625 105.1449 135° Southeast  Level Estimated
Sun 05:39:00 PM 49.5661 105.2903 136° Southeast  Level Estimated
Sun 05:40:00 PM 49.4696 105.4351 136° Southeast  Level Estimated
Sun 05:41:00 PM 49.3729 105.5794 136° Southeast  Level Estimated
Sun 05:42:00 PM 49.2760 105.7231 136° Southeast  Level Estimated
Sun 05:43:00 PM 49.1790 105.8662 136° Southeast  Level Estimated
Sun 05:44:00 PM 49.0817 106.0088 136° Southeast  Level Estimated
Sun 05:45:00 PM 48.9843 106.1508 136° Southeast  Level Estimated
Sun 05:46:00 PM 48.8867 106.2923 136° Southeast  Level Estimated
Sun 05:47:00 PM 48.7890 106.4332 136° Southeast  Level Estimated
Sun 05:48:00 PM 48.6910 106.5736 137° Southeast  Level Estimated
Sun 05:49:00 PM 48.5929 106.7134 137° Southeast  Level Estimated
Sun 05:50:00 PM 48.4947 106.8527 137° Southeast  Level Estimated
Sun 05:51:00 PM 48.3962 106.9914 137° Southeast  Level Estimated
Sun 05:52:00 PM 48.2976 107.1296 137° Southeast  Level Estimated
Sun 05:53:00 PM 48.1989 107.2673 137° Southeast  Level Estimated
Sun 05:54:00 PM 48.0999 107.4044 137° Southeast  Level Estimated
Sun 05:55:00 PM 48.0008 107.5411 137° Southeast  Level Estimated
Sun 05:56:00 PM 47.9016 107.6771 137° Southeast  Level Estimated
Sun 05:57:00 PM 47.8022 107.8127 137° Southeast  Level Estimated
Sun 05:58:00 PM 47.7026 107.9477 138° Southeast  Level Estimated
Sun 05:59:00 PM 47.6029 108.0823 138° Southeast  Level Estimated
Sun 06:00:00 PM 47.5030 108.2163 138° Southeast  Level Estimated
Sun 06:01:00 PM 47.4029 108.3498 138° Southeast  Level Estimated
Sun 06:02:00 PM 47.3027 108.4828 138° Southeast  Level Estimated
Sun 06:03:00 PM 47.2024 108.6153 138° Southeast  Level Estimated
Sun 06:04:00 PM 47.1019 108.7473 138° Southeast  Level Estimated
Sun 06:05:00 PM 47.0012 108.8788 138° Southeast  Level Estimated
Sun 06:06:00 PM 46.9004 109.0098 138° Southeast  Level Estimated
Sun 06:07:00 PM 46.7995 109.1404 138° Southeast  Level Estimated
Sun 06:08:00 PM 46.6984 109.2704 139° Southeast  Level Estimated
Sun 06:09:00 PM 46.5971 109.3999 139° Southeast  Level Estimated
Sun 06:10:00 PM 46.4957 109.5290 139° Southeast  Level Estimated
Sun 06:11:00 PM 46.3942 109.6575 139° Southeast  Level Estimated
Sun 06:12:00 PM 46.2925 109.7856 139° Southeast  Level Estimated
Sun 06:13:00 PM 46.1907 109.9133 139° Southeast  Level Estimated
Sun 06:14:00 PM 46.0887 110.0404 139° Southeast  Level Estimated
Sun 06:15:00 PM 45.9866 110.1671 139° Southeast  Level Estimated
Sun 06:16:00 PM 45.8844 110.2933 139° Southeast  Level Estimated
Sun 06:17:00 PM 45.7820 110.4191 139° Southeast  Level Estimated
Sun 06:18:00 PM 45.6795 110.5443 139° Southeast  Level Estimated
Sun 06:19:00 PM 45.5768 110.6692 140° Southeast  Level Estimated
Sun 06:20:00 PM 45.4740 110.7935 140° Southeast  Level Estimated
Sun 06:21:00 PM 45.3711 110.9175 140° Southeast  Level Estimated
Sun 06:22:00 PM 45.2680 111.0409 140° Southeast  Level Estimated
Sun 06:23:00 PM 45.1648 111.1640 140° Southeast  Level Estimated
Sun 06:24:00 PM 45.0615 111.2866 140° Southeast  Level Estimated
Sun 06:25:00 PM 44.9581 111.4087 140° Southeast  Level Estimated
Sun 06:26:00 PM 44.8545 111.5304 140° Southeast  Level Estimated
Sun 06:27:00 PM 44.7508 111.6516 140° Southeast  Level Estimated
Sun 06:28:00 PM 44.6469 111.7725 140° Southeast  Level Estimated
Sun 06:29:00 PM 44.5429 111.8929 140° Southeast  Level Estimated
Sun 06:30:00 PM 44.4389 112.0128 141° Southeast  Level Estimated
Sun 06:31:00 PM 44.3346 112.1323 141° Southeast  Level Estimated
Sun 06:32:00 PM 44.2303 112.2514 141° Southeast  Level Estimated
Sun 06:33:00 PM 44.1258 112.3701 141° Southeast  Level Estimated
Sun 06:34:00 PM 44.0212 112.4884 141° Southeast  Level Estimated
Sun 06:35:00 PM 43.9165 112.6063 141° Southeast  Level Estimated
Sun 06:36:00 PM 43.8117 112.7237 141° Southeast  Level Estimated
Sun 06:37:00 PM 43.7067 112.8407 141° Southeast  Level Estimated
Sun 06:38:00 PM 43.6046 112.9541 141° Southeast  Level Estimated
Sun 06:39:00 PM 43.5023 113.0671 141° Southeast  Level Estimated
Sun 06:40:00 PM 43.3999 113.1797 141° Southeast  Level Estimated
Sun 06:41:00 PM 43.2974 113.2920 141° Southeast  Level Estimated
Sun 06:42:00 PM 43.1948 113.4039 142° Southeast  Level Estimated
Sun 06:43:00 PM 43.0921 113.5154 142° Southeast  Level Estimated
Sun 06:44:00 PM 42.9893 113.6265 142° Southeast  Level Estimated
Sun 06:45:00 PM 42.8864 113.7372 142° Southeast  Level Estimated
Sun 06:46:00 PM 42.7834 113.8476 142° Southeast  Level Estimated
Sun 06:47:00 PM 42.6802 113.9576 142° Southeast  Level Estimated
Sun 06:48:00 PM 42.5770 114.0672 142° Southeast  Level Estimated
Sun 06:49:00 PM 42.4736 114.1765 142° Southeast  Level Estimated
Sun 06:50:00 PM 42.3702 114.2854 142° Southeast  Level Estimated
Sun 06:51:00 PM 42.2667 114.3940 142° Southeast  Level Estimated
Sun 06:52:00 PM 42.1630 114.5022 142° Southeast  Level Estimated
Sun 06:53:00 PM 42.0592 114.6101 142° Southeast  Level Estimated
Sun 06:54:00 PM 41.9554 114.7176 142° Southeast  Level Estimated
Sun 06:55:00 PM 41.8514 114.8247 142° Southeast  Level Estimated
Sun 06:56:00 PM 41.7474 114.9315 143° Southeast  Level Estimated
Sun 06:57:00 PM 41.6432 115.0380 143° Southeast  Level Estimated
Sun 06:58:00 PM 41.5390 115.1441 143° Southeast  Level Estimated
Sun 06:59:00 PM 41.4346 115.2498 143° Southeast  Level Estimated
Sun 07:00:00 PM 41.3302 115.3553 143° Southeast  Level Estimated
Sun 07:01:00 PM 41.2256 115.4604 143° Southeast  Level Estimated
Sun 07:02:00 PM 41.1210 115.5651 143° Southeast  Level Estimated
Sun 07:03:00 PM 41.0163 115.6696 143° Southeast  Level Estimated
Sun 07:04:00 PM 40.9114 115.7737 143° Southeast  Level Estimated
Sun 07:05:00 PM 40.8065 115.8774 143° Southeast  Level Estimated
Sun 07:06:00 PM 40.7015 115.9809 143° Southeast  Level Estimated
Sun 07:07:00 PM 40.5964 116.0840 143° Southeast  Level Estimated
Sun 07:08:00 PM 40.4912 116.1867 143° Southeast  Level Estimated
Sun 07:09:00 PM 40.3859 116.2892 143° Southeast  Level Estimated
Sun 07:10:00 PM 40.2806 116.3913 144° Southeast  Level Estimated
Sun 07:11:00 PM 40.1751 116.4932 144° Southeast  Level Estimated
Sun 07:12:00 PM 40.0801 116.5846 144° Southeast  Level Estimated
Sun 07:13:00 PM 40.0801 116.5846 North  Level Estimated
Sun 07:14:00 PM 40.0801 116.5846 North  Level Estimated
Sun 07:15:00 PM 40.0801 116.5846 North  Level Estimated
Sun 07:16:00 PM 40.0801 116.5846 North  Level Estimated
Sun 07:17:00 PM 40.0801 116.5846 North  Level Estimated
Sun 07:18:00 PM 40.0801 116.5846 North  Level Estimated
Sun 07:19:00 PM 40.0801 116.5846 North  Level Estimated
Sun 07:20:00 PM 40.0801 116.5846 North  Level Estimated
Sun 07:21:00 PM 40.0801 116.5846 North  Level Estimated
Sun 07:22:00 PM 40.0801 116.5846 North  Level Estimated
Sun 07:23:00 PM 40.0801 116.5846 North  Level Estimated
Sun 07:24:00 PM 40.0801 116.5846 North  Level Estimated
Sun 07:25:00 PM 40.0801 116.5846 North  Level Estimated
Sun 07:26:00 PM 40.0801 116.5846 North  Level Estimated
Sun 07:27:00 PM 40.0801 116.5846 North  Level Estimated
Sun 07:28:00 PM 40.0801 116.5846 North  Level Estimated
Sun 07:29:00 PM 40.0801 116.5846 North  Level Estimated
Sun 07:30:00 PM 40.0801 116.5846 North  Level Estimated
Sun 07:31:00 PM 40.0801 116.5846 North  Level Estimated
Sun 07:32:00 PM 40.0801 116.5846 North  Level Estimated
Sun 07:33:00 PM 40.0801 116.5846 North  Level Estimated
Sun 07:34:00 PM 40.0801 116.5846 North  Level Estimated

Login

Don't have an account? Register now (free) for customized features, flight alerts, and more!